Terminal Aerodrome Forecast
Issued by NWS Lake Charles, LA

Home | Current Version | Previous Version | Text Only | Print | Product List | Glossary On
Versions: 1 2 3 4 5 6 7 8 9 10 11 12 13 14 15
727
FTUS44 KLCH 271130
TAFAEX
TAF
KAEX 271130Z 2712/2812 15008KT P6SM BKN015
     FM271500 19012KT P6SM BKN025
     FM271800 21010KT P6SM VCTS SCT025CB
     FM280100 18005KT P6SM SKC
     FM280600 VRB03KT 2SM BR OVC008=

USA.gov is the U.S. government's official web portal to all federal, state and local government web resources and services.